Brackett, Wisconsin
Current Conditions -  °F | °C
As of 1:04 AM on Monday 22 Dec 2014 (Local Time) from KEAU Reporting Station
Overcast Overcast  
Wind Chill: 27°   Ceiling: 900
Heat Index: 36°   Visibility: 7mi
Dew Point: 33°   Wind: 14mph
Humidity: 89%   Direction: 160°SSE
Pressure: 29.79"   Gusts: NA
Location:  44.7441°N, 91.2945°W
Report Text: KEAU 220704Z AUTO 16012KT 7SM OVC009 02/01 A2979 RMK AO2 CIG 008V012 T00220006
Loading
Personal Weather Stations






























Interactive Weather Map New forecast layout! Learn more

10-Day Weather Forecast

Advertisements
Track Severe Weather on mobile